Time;durP1;ratioP1;P1;durP2;ratioP2;P2;SDS_P1;SDS_P2;PMS_P1;PMS_P2;Temp;Humidity;BMP_temperature;BMP_pressure;BME280_temperature;BME280_humidity;BME280_pressure;Samples;Min_cycle;Max_cycle;Signal;HPM_P1;HPM_P2
2023/07/16 00:02:05;;;;;;;9.43;2.38;;;19.80;99.90;;;;;;4985259;28;20209;-80
2023/07/16 00:04:34;;;;;;;2.08;1.65;;;19.80;99.90;;;;;;4985694;28;20235;-79
2023/07/16 00:07:01;;;;;;;5.20;2.33;;;19.70;99.90;;;;;;4988479;28;20201;-78
2023/07/16 00:09:29;;;;;;;4.70;2.40;;;19.70;99.90;;;;;;4986857;28;20207;-80
2023/07/16 00:11:57;;;;;;;3.00;1.95;;;19.70;99.90;;;;;;4965561;28;20208;-80
2023/07/16 00:14:24;;;;;;;2.83;2.22;;;19.70;99.90;;;;;;4986827;28;20221;-80
2023/07/16 00:16:52;;;;;;;3.17;1.95;;;19.60;99.90;;;;;;4981985;28;20208;-80
2023/07/16 00:19:19;;;;;;;4.35;1.90;;;19.60;99.90;;;;;;4986888;28;20452;-80
2023/07/16 00:21:48;;;;;;;3.10;1.83;;;19.70;99.90;;;;;;4987265;28;20209;-80
2023/07/16 00:24:16;;;;;;;2.10;1.90;;;19.70;99.90;;;;;;4990316;28;20243;-80
2023/07/16 00:26:43;;;;;;;3.13;1.90;;;19.70;99.90;;;;;;4986892;28;20706;-79
2023/07/16 00:29:11;;;;;;;4.18;2.03;;;19.80;99.90;;;;;;4988223;28;20216;-80
2023/07/16 00:31:39;;;;;;;3.13;2.00;;;19.70;99.90;;;;;;4982058;28;20209;-80
2023/07/16 00:34:06;;;;;;;4.32;1.80;;;19.70;99.90;;;;;;4991452;28;20216;-79
2023/07/16 00:36:34;;;;;;;3.35;1.90;;;19.90;99.90;;;;;;4978875;28;20217;-79
2023/07/16 00:39:02;;;;;;;4.00;2.05;;;19.80;99.90;;;;;;4986948;28;20200;-80
2023/07/16 00:41:30;;;;;;;4.20;2.33;;;19.60;99.90;;;;;;4987312;28;20215;-78
2023/07/16 00:43:58;;;;;;;2.97;2.10;;;19.70;99.90;;;;;;4984469;28;20229;-80
2023/07/16 00:46:26;;;;;;;3.58;1.80;;;19.60;99.90;;;;;;4985752;28;20215;-80
2023/07/16 00:48:53;;;;;;;3.78;1.67;;;19.50;99.90;;;;;;4986752;28;20190;-81
2023/07/16 00:51:25;;;;;;;3.58;1.95;;;19.50;99.90;;;;;;4987004;28;20197;-80
2023/07/16 00:53:53;;;;;;;3.45;1.60;;;19.50;99.90;;;;;;4979356;28;20216;-80
2023/07/16 00:56:23;;;;;;;3.95;1.90;;;19.40;99.90;;;;;;4974348;28;20218;-80
2023/07/16 00:58:50;;;;;;;6.45;2.05;;;19.40;99.90;;;;;;4976400;28;20205;-80
2023/07/16 01:01:18;;;;;;;2.88;2.05;;;19.40;99.90;;;;;;4974998;28;20208;-81
2023/07/16 01:03:46;;;;;;;3.95;2.40;;;19.40;99.90;;;;;;4977830;28;20209;-80
2023/07/16 01:06:18;;;;;;;4.32;2.25;;;19.20;99.90;;;;;;4972368;28;20212;-80
2023/07/16 01:08:50;;;;;;;2.83;2.38;;;19.20;99.90;;;;;;4978591;28;20181;-80
2023/07/16 01:11:18;;;;;;;4.32;2.30;;;19.20;99.90;;;;;;4978902;28;20208;-81
2023/07/16 01:13:47;;;;;;;2.20;2.00;;;19.30;99.90;;;;;;4987003;28;20204;-80
2023/07/16 01:16:22;;;;;;;4.65;2.72;;;19.40;99.90;;;;;;4978689;28;20232;-80
2023/07/16 01:18:49;;;;;;;3.92;3.13;;;19.40;99.90;;;;;;4980388;28;20559;-81
2023/07/16 01:21:20;;;;;;;5.70;3.60;;;19.40;99.90;;;;;;4980146;28;21823;-81
2023/07/16 01:24:14;;;;;;;10.32;4.10;;;19.20;99.90;;;;;;4979603;28;20537;-80
2023/07/16 01:26:59;;;;;;;5.00;4.10;;;19.00;99.90;;;;;;4977190;28;20201;-80
2023/07/16 01:29:33;;;;;;;7.35;3.47;;;19.00;99.90;;;;;;4980813;28;20205;-81
2023/07/16 01:32:01;;;;;;;6.32;3.28;;;19.00;99.90;;;;;;4978696;28;20193;-80
2023/07/16 01:34:33;;;;;;;4.80;3.33;;;19.00;99.90;;;;;;4963668;28;20225;-80
2023/07/16 01:37:01;;;;;;;3.60;2.58;;;18.90;99.90;;;;;;4975283;28;20709;-81
2023/07/16 01:39:28;;;;;;;6.82;2.70;;;18.90;99.90;;;;;;4961325;28;20214;-81
2023/07/16 01:41:56;;;;;;;4.00;2.90;;;18.90;99.90;;;;;;4978662;28;20205;-81
2023/07/16 01:44:24;;;;;;;4.78;3.13;;;19.00;99.90;;;;;;4960519;28;20213;-81
2023/07/16 01:47:11;;;;;;;3.75;2.35;;;18.90;99.90;;;;;;4978763;28;20197;-80
2023/07/16 01:49:38;;;;;;;6.85;2.30;;;18.90;99.90;;;;;;4978145;28;20205;-81
2023/07/16 01:52:08;;;;;;;3.70;2.00;;;18.90;99.90;;;;;;4977922;28;20664;-80
2023/07/16 01:54:36;;;;;;;2.95;2.10;;;19.00;99.90;;;;;;4977735;28;20244;-81
2023/07/16 01:57:04;;;;;;;3.53;2.10;;;19.00;99.90;;;;;;4977488;28;20236;-80
2023/07/16 01:59:31;;;;;;;3.58;2.50;;;18.90;99.90;;;;;;4962811;28;20200;-80
2023/07/16 02:02:04;;;;;;;3.05;1.90;;;18.80;99.90;;;;;;4959121;28;20583;-80
2023/07/16 02:04:31;;;;;;;3.55;2.25;;;18.90;99.90;;;;;;4956850;28;20217;-81
2023/07/16 02:07:13;;;;;;;4.13;2.67;;;18.80;99.90;;;;;;4970547;28;20213;-81
2023/07/16 02:09:41;;;;;;;6.25;2.15;;;18.80;99.90;;;;;;4973933;28;20206;-80
2023/07/16 02:12:08;;;;;;;5.10;2.72;;;18.80;99.90;;;;;;4977479;28;20208;-80
2023/07/16 02:14:36;;;;;;;4.40;2.42;;;18.80;99.90;;;;;;4975667;28;20220;-81
2023/07/16 02:17:22;;;;;;;2.95;2.47;;;18.80;99.90;;;;;;4976217;28;20228;-80
2023/07/16 02:19:49;;;;;;;4.50;2.72;;;18.70;99.90;;;;;;4984578;28;20556;-80
2023/07/16 02:22:17;;;;;;;3.65;2.70;;;18.70;99.90;;;;;;4977120;28;20216;-81
2023/07/16 02:24:45;;;;;;;3.78;2.45;;;18.70;99.90;;;;;;4972748;28;20225;-81
2023/07/16 02:27:14;;;;;;;5.93;2.60;;;18.80;99.90;;;;;;4974789;28;20201;-80
2023/07/16 02:29:42;;;;;;;3.35;2.47;;;18.80;99.90;;;;;;4981600;28;20666;-81
2023/07/16 02:32:10;;;;;;;3.38;2.40;;;18.90;99.90;;;;;;4975329;28;20205;-81
2023/07/16 02:34:40;;;;;;;5.70;2.28;;;19.00;99.90;;;;;;4976274;28;20236;-81
2023/07/16 02:37:07;;;;;;;4.18;2.90;;;18.90;99.90;;;;;;4974848;28;20217;-80
2023/07/16 02:39:34;;;;;;;3.83;2.10;;;18.90;99.90;;;;;;4975477;28;20749;-81
2023/07/16 02:42:02;;;;;;;4.45;2.58;;;19.00;99.90;;;;;;4978428;28;20197;-80
2023/07/16 02:44:29;;;;;;;4.63;2.38;;;18.90;99.90;;;;;;4981571;28;20223;-80
2023/07/16 02:46:57;;;;;;;3.05;2.00;;;19.10;99.90;;;;;;4974591;28;20590;-81
2023/07/16 02:49:24;;;;;;;3.08;1.90;;;19.00;99.90;;;;;;4974055;28;20206;-81
2023/07/16 02:51:53;;;;;;;4.40;1.95;;;19.00;99.90;;;;;;4975769;28;20201;-82
2023/07/16 02:54:21;;;;;;;3.17;1.80;;;19.40;99.90;;;;;;4974797;28;20225;-81
2023/07/16 02:56:48;;;;;;;3.67;2.25;;;19.50;99.90;;;;;;4976639;28;20213;-82
2023/07/16 02:59:15;;;;;;;3.90;1.98;;;19.80;99.90;;;;;;4975570;28;20205;-81
2023/07/16 03:01:43;;;;;;;5.13;2.35;;;19.60;99.90;;;;;;4973894;28;20520;-82
2023/07/16 03:04:10;;;;;;;4.00;2.00;;;19.40;99.90;;;;;;4976463;28;20225;-82
2023/07/16 03:06:38;;;;;;;3.60;1.90;;;19.60;99.90;;;;;;4979645;28;20181;-82
2023/07/16 03:09:07;;;;;;;3.95;1.83;;;19.60;99.90;;;;;;4977521;28;20667;-82
2023/07/16 03:11:34;;;;;;;6.18;2.42;;;19.50;99.90;;;;;;4977635;28;20569;-82
2023/07/16 03:14:02;;;;;;;2.95;2.30;;;19.40;99.90;;;;;;4979538;28;20224;-81
2023/07/16 03:16:32;;;;;;;5.95;2.10;;;19.70;99.90;;;;;;4973786;28;20221;-82
2023/07/16 03:19:00;;;;;;;3.13;2.20;;;19.60;99.90;;;;;;4976317;28;20213;-82
2023/07/16 03:21:27;;;;;;;4.47;1.92;;;19.80;99.90;;;;;;4977919;28;20217;-82
2023/07/16 03:23:55;;;;;;;4.50;2.25;;;20.10;99.90;;;;;;4972933;28;20217;-79
2023/07/16 03:26:23;;;;;;;2.42;1.90;;;20.00;99.90;;;;;;4975260;28;20201;-81
2023/07/16 03:28:51;;;;;;;6.30;2.33;;;19.90;99.90;;;;;;4975846;28;20209;-82
2023/07/16 03:31:19;;;;;;;5.85;2.40;;;20.00;99.90;;;;;;4975003;28;20200;-81
2023/07/16 03:33:48;;;;;;;2.60;1.77;;;19.70;99.90;;;;;;4978118;28;20207;-81
2023/07/16 03:36:16;;;;;;;5.63;2.15;;;20.10;99.90;;;;;;4974150;28;20702;-82
2023/07/16 03:38:43;;;;;;;5.93;1.92;;;19.90;99.90;;;;;;4974554;28;20613;-81
2023/07/16 03:41:11;;;;;;;3.22;2.03;;;19.60;99.90;;;;;;4974449;28;20659;-82
2023/07/16 03:43:40;;;;;;;4.05;1.83;;;19.50;99.90;;;;;;4959762;28;20209;-81
2023/07/16 03:46:17;;;;;;;3.25;2.00;;;19.80;99.90;;;;;;4976180;28;20209;-81
2023/07/16 03:48:45;;;;;;;4.10;1.90;;;19.60;99.90;;;;;;4961796;28;20189;-81
2023/07/16 03:51:12;;;;;;;2.72;1.63;;;19.60;99.90;;;;;;4981288;28;20204;-81
2023/07/16 03:53:41;;;;;;;2.72;1.80;;;19.60;99.90;;;;;;4971951;28;20205;-81
2023/07/16 03:56:08;;;;;;;3.75;2.10;;;19.20;99.90;;;;;;4975731;28;20220;-82
2023/07/16 03:58:36;;;;;;;3.92;1.65;;;18.90;99.90;;;;;;4975294;28;20208;-79
2023/07/16 04:01:09;;;;;;;5.63;2.40;;;19.10;99.90;;;;;;4967244;28;20202;-81
2023/07/16 04:03:37;;;;;;;5.80;2.35;;;18.90;99.90;;;;;;4974352;28;20209;-81
2023/07/16 04:06:09;;;;;;;4.07;1.92;;;19.00;99.90;;;;;;4976116;28;20201;-82
2023/07/16 04:08:37;;;;;;;6.28;2.10;;;18.90;99.90;;;;;;4973672;28;20201;-82
2023/07/16 04:11:05;;;;;;;7.35;2.70;;;18.70;99.90;;;;;;4972543;28;20670;-81
2023/07/16 04:13:33;;;;;;;7.15;2.42;;;18.80;99.90;;;;;;4974422;28;20212;-81
2023/07/16 04:16:01;;;;;;;6.80;2.25;;;18.80;99.90;;;;;;4977223;28;20208;-81
2023/07/16 04:18:30;;;;;;;4.95;2.28;;;18.80;99.90;;;;;;4972836;28;20211;-81
2023/07/16 04:21:12;;;;;;;5.15;2.30;;;18.90;99.90;;;;;;4976289;28;20559;-81
2023/07/16 04:23:40;;;;;;;7.18;2.13;;;18.80;99.90;;;;;;4971987;28;20459;-81
2023/07/16 04:26:07;;;;;;;6.43;2.30;;;18.80;99.90;;;;;;4971182;28;20216;-80
2023/07/16 04:28:35;;;;;;;6.70;3.03;;;18.60;99.90;;;;;;4973332;28;20575;-81
2023/07/16 04:31:02;;;;;;;9.23;3.03;;;18.60;99.90;;;;;;4971055;28;20211;-80
2023/07/16 04:33:31;;;;;;;5.43;2.90;;;18.40;99.90;;;;;;4974643;28;20201;-80
2023/07/16 04:35:58;;;;;;;6.13;2.45;;;18.60;99.90;;;;;;4971092;28;20205;-80
2023/07/16 04:38:26;;;;;;;6.32;2.83;;;18.70;99.90;;;;;;4973749;28;20228;-80
2023/07/16 04:40:53;;;;;;;4.93;2.55;;;18.70;99.90;;;;;;4970617;28;20212;-80
2023/07/16 04:43:21;;;;;;;4.18;2.08;;;18.60;99.90;;;;;;4975606;28;20571;-80
2023/07/16 04:45:48;;;;;;;5.00;2.65;;;18.80;99.90;;;;;;4977204;28;20217;-80
2023/07/16 04:48:16;;;;;;;7.55;2.65;;;18.70;99.90;;;;;;4977661;28;20204;-80
2023/07/16 04:50:45;;;;;;;8.10;3.15;;;18.60;99.90;;;;;;4979523;28;20201;-80
2023/07/16 04:53:12;;;;;;;5.78;2.95;;;18.60;99.90;;;;;;4974565;28;20205;-80
2023/07/16 04:55:40;;;;;;;4.07;2.33;;;18.60;99.90;;;;;;4975450;28;20217;-80
2023/07/16 04:58:07;;;;;;;6.63;2.88;;;18.60;99.90;;;;;;4974658;28;20221;-80
2023/07/16 05:00:35;;;;;;;3.33;2.58;;;18.80;99.90;;;;;;4957776;28;20201;-80
2023/07/16 05:03:03;;;;;;;6.05;2.92;;;18.90;99.90;;;;;;4975620;28;20204;-80
2023/07/16 05:05:30;;;;;;;4.15;2.50;;;18.90;99.90;;;;;;4974899;28;20232;-80
2023/07/16 05:07:59;;;;;;;4.00;2.35;;;18.80;99.90;;;;;;4976469;28;20197;-80
2023/07/16 05:10:27;;;;;;;7.13;2.92;;;18.70;99.90;;;;;;4975621;28;20212;-80
2023/07/16 05:13:03;;;;;;;7.80;2.88;;;18.60;99.90;;;;;;4975247;28;20201;-80
2023/07/16 05:15:32;;;;;;;5.63;3.03;;;18.60;99.90;;;;;;4975278;28;20228;-80
2023/07/16 05:18:01;;;;;;;6.07;3.00;;;18.80;99.90;;;;;;4973313;28;20217;-80
2023/07/16 05:20:28;;;;;;;6.20;2.90;;;18.60;99.90;;;;;;4972084;28;20197;-80
2023/07/16 05:23:07;;;;;;;5.03;2.58;;;18.60;99.90;;;;;;4975904;28;20663;-80
2023/07/16 05:25:34;;;;;;;5.90;2.90;;;18.70;99.90;;;;;;4972286;28;20227;-80
2023/07/16 05:28:02;;;;;;;6.82;2.70;;;18.70;99.90;;;;;;4974507;28;20220;-80
2023/07/16 05:30:29;;;;;;;6.97;2.85;;;18.90;99.90;;;;;;4970265;28;20224;-80
2023/07/16 05:32:57;;;;;;;5.03;3.15;;;18.80;99.90;;;;;;4973589;28;20209;-80
2023/07/16 05:35:24;;;;;;;6.13;2.80;;;19.00;99.90;;;;;;4976748;28;20220;-82
2023/07/16 05:37:52;;;;;;;7.47;3.00;;;18.80;99.90;;;;;;4975395;28;20220;-82
2023/07/16 05:40:23;;;;;;;7.40;3.10;;;18.80;99.90;;;;;;4973279;28;20200;-81
2023/07/16 05:42:51;;;;;;;4.57;2.85;;;18.70;99.90;;;;;;4969154;28;20599;-82
2023/07/16 05:45:18;;;;;;;7.28;3.08;;;18.90;99.90;;;;;;4973566;28;20236;-81
2023/07/16 05:47:52;;;;;;;4.95;3.10;;;19.00;99.90;;;;;;4971524;28;20216;-81
2023/07/16 05:50:19;;;;;;;6.55;2.85;;;19.00;99.90;;;;;;4965539;28;20201;-82
2023/07/16 05:52:48;;;;;;;4.97;2.85;;;18.80;99.90;;;;;;4974497;28;20213;-84
2023/07/16 05:55:16;;;;;;;4.50;2.63;;;18.80;99.90;;;;;;4972457;28;20223;-83
2023/07/16 05:57:44;;;;;;;5.22;2.72;;;18.90;99.90;;;;;;4971809;28;20217;-83
2023/07/16 06:00:17;;;;;;;5.30;2.80;;;18.90;99.90;;;;;;4957475;28;20208;-83
2023/07/16 06:02:45;;;;;;;7.95;3.17;;;18.90;99.90;;;;;;4972610;28;20205;-83
2023/07/16 06:05:12;;;;;;;6.13;3.13;;;18.90;99.90;;;;;;4972841;28;20236;-83
2023/07/16 06:07:40;;;;;;;7.25;3.63;;;19.00;99.90;;;;;;4974817;28;20200;-83
2023/07/16 06:10:09;;;;;;;7.28;3.47;;;19.00;99.90;;;;;;4966045;28;20200;-83
2023/07/16 06:12:45;;;;;;;4.65;3.00;;;18.90;99.90;;;;;;4982186;28;20208;-84
2023/07/16 06:15:14;;;;;;;6.15;3.83;;;18.90;99.90;;;;;;4971197;28;20220;-84
2023/07/16 06:17:46;;;;;;;5.90;3.08;;;18.80;99.90;;;;;;4976887;28;20224;-83
2023/07/16 06:20:17;;;;;;;7.43;4.38;;;18.90;99.90;;;;;;4975105;28;20209;-83
2023/07/16 06:22:51;;;;;;;5.53;3.70;;;19.10;99.90;;;;;;4965284;28;20206;-83
2023/07/16 06:25:36;;;;;;;8.45;3.78;;;18.90;99.90;;;;;;4957539;28;20221;-83
2023/07/16 06:28:05;;;;;;;9.60;3.90;;;19.10;99.90;;;;;;4964685;28;20197;-83
2023/07/16 06:30:33;;;;;;;7.18;4.35;;;18.90;99.90;;;;;;4954456;28;20197;-83
2023/07/16 06:33:01;;;;;;;8.25;3.90;;;18.90;99.90;;;;;;4972754;28;20220;-83
2023/07/16 06:35:28;;;;;;;7.82;3.80;;;18.90;99.90;;;;;;4970094;28;20221;-82
2023/07/16 06:38:15;;;;;;;8.95;3.88;;;19.10;99.90;;;;;;4974708;28;20219;-82
2023/07/16 06:40:48;;;;;;;7.53;4.28;;;19.20;99.90;;;;;;4955515;28;20208;-83
2023/07/16 06:43:17;;;;;;;7.43;4.00;;;19.20;99.90;;;;;;4971782;28;20201;-82
2023/07/16 06:45:45;;;;;;;6.40;3.88;;;19.30;99.90;;;;;;4955662;28;20229;-84
2023/07/16 06:48:13;;;;;;;9.68;4.45;;;19.30;99.90;;;;;;4973866;28;20568;-84
2023/07/16 06:50:40;;;;;;;9.85;4.20;;;19.10;99.90;;;;;;4948178;28;20197;-85
2023/07/16 06:53:07;;;;;;;6.93;4.03;;;19.20;99.90;;;;;;4971632;28;20204;-83
2023/07/16 06:55:35;;;;;;;6.68;4.03;;;19.20;99.90;;;;;;4972410;28;20224;-84
2023/07/16 06:58:02;;;;;;;9.07;4.82;;;19.10;99.90;;;;;;4972130;28;20221;-84
2023/07/16 07:00:32;;;;;;;7.55;4.15;;;19.10;99.90;;;;;;4970284;28;20201;-84
2023/07/16 07:02:59;;;;;;;6.65;3.97;;;19.10;99.90;;;;;;4970402;28;20197;-83
2023/07/16 07:05:27;;;;;;;7.05;4.10;;;19.10;99.90;;;;;;4952145;28;20225;-84
2023/07/16 07:07:54;;;;;;;7.43;4.68;;;19.30;99.90;;;;;;4971475;28;20193;-84
2023/07/16 07:10:32;;;;;;;8.90;5.25;;;19.30;99.90;;;;;;4968237;28;20205;-83
2023/07/16 07:13:09;;;;;;;11.05;4.32;;;19.30;99.90;;;;;;4975154;28;20204;-84
2023/07/16 07:15:38;;;;;;;7.13;4.65;;;19.30;99.90;;;;;;4971962;28;20217;-84
2023/07/16 07:18:06;;;;;;;8.23;4.18;;;19.20;99.90;;;;;;4971467;28;20213;-84
2023/07/16 07:20:47;;;;;;;9.60;5.30;;;19.40;99.90;;;;;;4977597;28;20200;-83
2023/07/16 07:23:24;;;;;;;7.68;4.40;;;19.40;99.90;;;;;;4975492;28;20570;-84
2023/07/16 07:26:01;;;;;;;8.93;5.35;;;19.50;99.90;;;;;;4946422;28;20227;-86
2023/07/16 07:28:44;;;;;;;7.03;4.00;;;19.40;99.90;;;;;;4962950;28;20198;-84
2023/07/16 07:31:39;;;;;;;6.53;4.47;;;19.40;99.90;;;;;;4969596;28;20189;-84
2023/07/16 07:34:12;;;;;;;10.32;4.43;;;19.90;99.90;;;;;;4966973;28;20228;-85
2023/07/16 07:36:40;;;;;;;8.00;4.72;;;20.00;99.90;;;;;;4987218;28;20201;-85
2023/07/16 07:39:08;;;;;;;7.57;4.60;;;19.60;99.90;;;;;;4978560;28;20225;-85
2023/07/16 07:41:35;;;;;;;9.05;4.40;;;19.50;99.90;;;;;;4977823;28;20201;-84
2023/07/16 07:44:12;;;;;;;7.72;4.45;;;19.50;99.90;;;;;;4974184;28;20225;-85
2023/07/16 07:46:43;;;;;;;7.53;4.60;;;19.50;99.90;;;;;;4976817;28;20223;-83
2023/07/16 07:49:10;;;;;;;7.57;4.70;;;19.80;99.90;;;;;;4973714;28;20208;-84
2023/07/16 07:51:39;;;;;;;6.65;4.22;;;19.80;99.90;;;;;;4968094;28;20212;-84
2023/07/16 07:54:09;;;;;;;7.25;4.38;;;19.80;99.90;;;;;;4978842;28;20227;-85
2023/07/16 07:56:36;;;;;;;8.10;4.43;;;19.80;99.90;;;;;;4954982;28;20205;-84
2023/07/16 07:59:05;;;;;;;9.60;4.90;;;20.10;99.90;;;;;;4976429;28;20213;-84
2023/07/16 08:01:33;;;;;;;8.50;4.65;;;20.10;99.90;;;;;;4969555;28;20213;-85
2023/07/16 08:04:01;;;;;;;11.75;4.90;;;20.00;99.90;;;;;;4969987;28;20228;-85
2023/07/16 08:06:29;;;;;;;5.90;4.32;;;19.90;99.90;;;;;;4965331;28;20197;-86
2023/07/16 08:09:13;;;;;;;7.95;4.40;;;20.00;99.90;;;;;;4962543;28;20197;-85
2023/07/16 08:11:40;;;;;;;6.88;4.20;;;19.80;99.90;;;;;;4971031;28;20206;-85
2023/07/16 08:14:08;;;;;;;10.02;4.38;;;19.70;99.90;;;;;;4989045;28;20223;-84
2023/07/16 08:16:35;;;;;;;7.00;4.68;;;19.60;99.90;;;;;;4969406;28;20983;-83
2023/07/16 08:19:04;;;;;;;6.72;4.20;;;19.60;99.90;;;;;;4976131;28;20212;-84
2023/07/16 08:21:39;;;;;;;6.88;4.43;;;19.70;99.90;;;;;;4983778;28;20193;-85
2023/07/16 08:24:07;;;;;;;8.55;4.38;;;19.80;99.90;;;;;;4961198;28;20232;-86
2023/07/16 08:26:34;;;;;;;10.18;4.57;;;19.80;99.90;;;;;;4973756;28;20208;-86
2023/07/16 08:29:02;;;;;;;8.82;4.30;;;19.80;99.90;;;;;;4975681;28;20544;-85
2023/07/16 08:31:40;;;;;;;6.07;4.03;;;20.10;99.90;;;;;;4975547;28;20213;-86
2023/07/16 08:34:09;;;;;;;7.75;4.55;;;20.40;99.90;;;;;;4973093;28;20216;-86
2023/07/16 08:36:45;;;;;;;7.65;4.60;;;20.30;99.90;;;;;;4972600;28;20200;-86
2023/07/16 08:39:36;;;;;;;4.95;4.15;;;20.20;99.90;;;;;;4973014;28;20216;-85
2023/07/16 08:42:23;;;;;;;10.32;5.03;;;20.40;99.90;;;;;;4967628;28;20201;-85
2023/07/16 08:44:54;;;;;;;8.30;4.78;;;20.40;99.90;;;;;;4969971;28;20236;-85
2023/07/16 08:47:21;;;;;;;7.75;4.72;;;20.50;99.90;;;;;;4968022;28;20206;-85
2023/07/16 08:49:55;;;;;;;7.45;4.10;;;20.40;99.90;;;;;;4970764;28;20205;-85
2023/07/16 08:52:26;;;;;;;7.40;4.45;;;20.10;99.90;;;;;;4973763;28;20201;-85
2023/07/16 08:55:01;;;;;;;8.68;4.63;;;20.40;99.90;;;;;;4953398;28;20236;-85
2023/07/16 08:57:31;;;;;;;6.13;4.32;;;20.40;99.90;;;;;;4982250;28;20203;-85
2023/07/16 09:00:03;;;;;;;7.55;4.15;;;20.50;99.70;;;;;;4980572;28;20221;-86
2023/07/16 09:02:37;;;;;;;6.22;4.30;;;20.50;99.90;;;;;;4940902;28;20216;-87
2023/07/16 09:05:08;;;;;;;10.10;5.13;;;20.70;99.70;;;;;;4943490;28;20251;-85
2023/07/16 09:07:38;;;;;;;5.78;3.95;;;20.70;99.70;;;;;;4974019;28;20216;-85
2023/07/16 09:10:07;;;;;;;7.32;4.22;;;20.60;99.80;;;;;;4973606;28;20223;-85
2023/07/16 09:12:35;;;;;;;6.68;4.53;;;20.70;99.50;;;;;;4974091;28;20207;-84
2023/07/16 09:15:07;;;;;;;6.88;4.18;;;20.70;99.00;;;;;;4976755;28;20221;-85
2023/07/16 09:17:37;;;;;;;6.57;4.40;;;20.70;99.00;;;;;;4973146;28;20212;-85
2023/07/16 09:20:10;;;;;;;5.70;3.88;;;20.80;98.80;;;;;;4972850;28;20224;-84
2023/07/16 09:22:37;;;;;;;7.72;4.10;;;20.70;98.60;;;;;;4972864;28;20574;-85
2023/07/16 09:25:06;;;;;;;6.97;3.90;;;20.80;98.80;;;;;;4971663;28;20225;-86
2023/07/16 09:27:33;;;;;;;6.20;3.90;;;20.60;98.30;;;;;;4970139;28;20205;-87
2023/07/16 09:30:02;;;;;;;7.00;3.72;;;20.60;98.10;;;;;;4973184;28;20201;-85
2023/07/16 09:32:37;;;;;;;7.80;4.10;;;20.70;97.90;;;;;;4972633;28;20202;-85
2023/07/16 09:35:11;;;;;;;6.63;3.97;;;20.80;97.80;;;;;;4974174;28;20216;-84
2023/07/16 09:37:40;;;;;;;5.90;3.30;;;20.90;98.00;;;;;;4975831;28;20201;-83
2023/07/16 09:40:13;;;;;;;6.80;3.80;;;20.90;97.50;;;;;;4976886;28;20212;-83
2023/07/16 09:42:47;;;;;;;4.95;3.40;;;20.90;97.40;;;;;;4984826;28;20681;-83
2023/07/16 09:45:20;;;;;;;5.55;3.15;;;21.00;97.10;;;;;;4965702;28;20238;-83
2023/07/16 09:47:48;;;;;;;4.68;3.50;;;20.80;97.50;;;;;;4975298;28;20204;-84
2023/07/16 09:50:19;;;;;;;6.13;3.50;;;20.90;97.50;;;;;;4962716;28;20190;-85
2023/07/16 09:52:48;;;;;;;6.13;4.35;;;21.10;97.60;;;;;;4980193;28;20569;-84
2023/07/16 09:55:22;;;;;;;6.95;3.33;;;21.00;97.70;;;;;;4977592;28;20229;-84
2023/07/16 09:57:52;;;;;;;5.35;3.55;;;21.40;97.80;;;;;;4975400;28;20204;-84
2023/07/16 10:00:21;;;;;;;6.40;4.20;;;21.40;97.70;;;;;;4973146;28;20224;-84
2023/07/16 10:02:49;;;;;;;5.63;3.88;;;21.50;97.90;;;;;;4974272;28;20197;-84
2023/07/16 10:05:19;;;;;;;6.22;3.67;;;21.60;97.10;;;;;;4973892;28;20220;-84
2023/07/16 10:07:52;;;;;;;5.90;4.00;;;21.50;96.90;;;;;;4975804;28;20587;-84
2023/07/16 10:10:20;;;;;;;5.95;3.08;;;21.20;96.30;;;;;;4961306;28;20559;-84
2023/07/16 10:12:56;;;;;;;6.03;3.45;;;21.10;96.20;;;;;;4976471;28;20226;-84
2023/07/16 10:15:27;;;;;;;6.03;3.70;;;21.20;96.20;;;;;;4963732;28;20419;-83
2023/07/16 10:17:55;;;;;;;8.45;3.88;;;21.40;96.70;;;;;;4981233;28;20201;-84
2023/07/16 10:20:42;;;;;;;6.55;3.78;;;21.60;96.70;;;;;;4974511;28;20228;-85
2023/07/16 10:23:13;;;;;;;8.68;3.97;;;21.50;96.30;;;;;;4974707;28;20209;-85
2023/07/16 10:25:42;;;;;;;6.88;3.17;;;21.50;96.90;;;;;;4962708;28;20220;-86
2023/07/16 10:28:09;;;;;;;6.47;3.45;;;21.30;95.50;;;;;;4968803;28;20216;-84
2023/07/16 10:30:40;;;;;;;9.00;4.68;;;21.40;96.30;;;;;;4975457;28;20216;-85
2023/07/16 10:33:13;;;;;;;6.90;3.70;;;21.40;96.50;;;;;;4976550;28;20198;-86
2023/07/16 10:36:00;;;;;;;4.97;3.42;;;21.40;96.80;;;;;;4983884;28;20221;-86
2023/07/16 10:38:28;;;;;;;4.25;3.30;;;21.50;96.50;;;;;;4965417;28;20212;-85
2023/07/16 10:41:24;;;;;;;5.35;2.90;;;21.50;95.90;;;;;;4971028;28;20209;-85
2023/07/16 10:43:59;;;;;;;5.15;3.20;;;21.60;95.60;;;;;;4925134;28;20216;-85
2023/07/16 10:46:27;;;;;;;6.18;3.80;;;21.60;95.20;;;;;;4971242;28;20216;-85
2023/07/16 10:48:59;;;;;;;5.45;3.60;;;21.50;95.70;;;;;;4975050;28;20205;-85
2023/07/16 10:51:30;;;;;;;5.53;3.25;;;21.70;95.10;;;;;;4975352;28;20208;-84
2023/07/16 10:53:59;;;;;;;6.85;3.78;;;21.60;95.00;;;;;;4975156;28;20217;-84
2023/07/16 10:56:27;;;;;;;5.47;3.03;;;21.70;95.30;;;;;;4975252;28;20197;-85
2023/07/16 10:58:55;;;;;;;5.03;3.30;;;21.90;95.10;;;;;;4974078;28;20209;-85
2023/07/16 11:01:24;;;;;;;7.13;3.85;;;22.00;95.00;;;;;;4975941;28;20579;-85
2023/07/16 11:04:07;;;;;;;5.80;4.15;;;21.70;94.60;;;;;;4977553;28;20614;-85
2023/07/16 11:06:36;;;;;;;6.55;3.67;;;21.80;95.10;;;;;;4971194;28;20201;-85
2023/07/16 11:09:08;;;;;;;6.65;4.38;;;21.80;95.10;;;;;;4975556;28;20200;-85
2023/07/16 11:11:36;;;;;;;5.35;3.28;;;21.70;95.00;;;;;;4970723;28;20202;-85
2023/07/16 11:14:05;;;;;;;5.82;3.83;;;21.50;95.40;;;;;;4973933;28;20231;-85
2023/07/16 11:16:35;;;;;;;3.97;3.03;;;21.60;95.60;;;;;;4971988;28;20193;-86
2023/07/16 11:19:04;;;;;;;4.85;3.20;;;21.60;95.50;;;;;;4971319;28;20564;-85
2023/07/16 11:21:32;;;;;;;4.63;3.17;;;21.70;95.90;;;;;;4976211;28;20212;-85
2023/07/16 11:24:10;;;;;;;5.43;3.22;;;21.70;95.50;;;;;;4974563;28;20224;-85
2023/07/16 11:26:38;;;;;;;6.03;3.70;;;21.90;95.40;;;;;;4984446;28;20200;-85
2023/07/16 11:29:14;;;;;;;5.07;3.47;;;22.00;95.60;;;;;;4958452;28;20555;-84
2023/07/16 11:31:42;;;;;;;6.28;3.60;;;21.80;95.40;;;;;;4975657;28;20201;-84
2023/07/16 11:34:14;;;;;;;5.72;3.35;;;21.80;95.20;;;;;;4988669;28;20228;-84
2023/07/16 11:36:41;;;;;;;5.80;3.45;;;21.80;95.60;;;;;;4974312;28;20208;-86
2023/07/16 11:39:12;;;;;;;5.50;3.60;;;21.70;95.70;;;;;;4955178;28;20232;-83
2023/07/16 11:41:40;;;;;;;4.28;3.20;;;21.80;95.20;;;;;;4971570;28;20217;-82
2023/07/16 11:44:09;;;;;;;6.07;3.47;;;21.70;95.10;;;;;;4975012;28;20225;-81
2023/07/16 11:46:37;;;;;;;6.47;3.28;;;21.70;95.00;;;;;;4970970;28;20216;-81
2023/07/16 11:49:06;;;;;;;5.70;3.35;;;21.70;95.10;;;;;;4968492;28;20583;-82
2023/07/16 11:51:34;;;;;;;6.28;3.42;;;21.70;95.30;;;;;;4970280;28;20205;-81
2023/07/16 11:54:03;;;;;;;7.40;3.58;;;21.90;95.20;;;;;;4969912;28;20224;-83
2023/07/16 11:56:32;;;;;;;7.22;3.45;;;21.90;95.20;;;;;;4951993;28;20219;-82
2023/07/16 11:58:59;;;;;;;7.60;3.88;;;21.90;95.10;;;;;;4972558;28;20215;-82
2023/07/16 12:01:27;;;;;;;7.13;3.30;;;21.90;95.20;;;;;;4967358;28;20240;-82
2023/07/16 12:03:55;;;;;;;5.28;3.17;;;21.90;95.10;;;;;;4974751;28;20193;-83
2023/07/16 12:06:23;;;;;;;8.38;3.67;;;22.00;95.10;;;;;;4971733;28;20209;-83
2023/07/16 12:08:51;;;;;;;6.55;3.75;;;22.00;94.90;;;;;;4969317;28;20567;-83
2023/07/16 12:11:19;;;;;;;7.13;3.50;;;22.10;94.60;;;;;;4954253;28;20211;-81
2023/07/16 12:13:50;;;;;;;6.18;3.50;;;22.10;94.60;;;;;;4971582;28;20205;-83
2023/07/16 12:16:21;;;;;;;4.88;3.05;;;22.10;94.70;;;;;;4967513;28;20209;-82
2023/07/16 12:18:49;;;;;;;4.57;3.17;;;22.00;94.00;;;;;;4952211;28;20424;-82
2023/07/16 12:21:24;;;;;;;6.90;3.70;;;22.10;94.40;;;;;;4969217;28;20209;-83
2023/07/16 12:23:52;;;;;;;7.43;3.10;;;22.10;94.50;;;;;;4971481;28;20681;-83
2023/07/16 12:26:19;;;;;;;7.25;3.97;;;22.10;94.60;;;;;;4968658;28;20201;-83
2023/07/16 12:28:51;;;;;;;5.10;3.38;;;22.20;95.10;;;;;;4968774;28;20212;-84
2023/07/16 12:31:22;;;;;;;4.47;3.30;;;22.20;94.50;;;;;;4969610;28;20204;-83
2023/07/16 12:33:50;;;;;;;5.43;3.70;;;22.20;94.20;;;;;;4971466;28;20205;-83
2023/07/16 12:36:18;;;;;;;4.85;3.15;;;22.20;94.00;;;;;;4954038;28;20201;-83
2023/07/16 12:38:45;;;;;;;4.25;3.30;;;22.10;93.80;;;;;;4953693;28;20201;-83
2023/07/16 12:41:20;;;;;;;5.45;3.33;;;22.20;94.50;;;;;;4966939;28;20614;-83
2023/07/16 12:43:51;;;;;;;7.05;3.55;;;22.00;94.20;;;;;;4967682;28;20203;-83
2023/07/16 12:46:19;;;;;;;4.93;3.45;;;22.10;94.30;;;;;;4966557;28;20213;-83
2023/07/16 12:48:53;;;;;;;5.57;3.47;;;22.10;94.50;;;;;;4968721;28;20212;-84
2023/07/16 12:51:24;;;;;;;7.47;3.70;;;22.10;94.40;;;;;;4968834;28;20197;-83
2023/07/16 12:53:51;;;;;;;5.88;3.22;;;22.10;94.40;;;;;;4967302;28;20216;-83
2023/07/16 12:56:25;;;;;;;4.88;3.28;;;22.10;94.70;;;;;;4970299;28;20564;-84
2023/07/16 12:58:54;;;;;;;5.00;3.28;;;22.10;94.50;;;;;;4972802;28;20224;-84
2023/07/16 13:01:22;;;;;;;6.03;3.72;;;22.20;95.10;;;;;;4974122;28;22024;-83